createdAt,value
2023-04-01T00:00:58.827Z,6.43
2023-04-01T00:02:31.682Z,5.07
2023-04-01T00:04:04.824Z,3.40
2023-04-01T00:05:37.613Z,4.50
2023-04-01T00:07:10.764Z,8.83
2023-04-01T00:08:42.570Z,4.40
2023-04-01T00:10:17.622Z,6.20
2023-04-01T00:11:50.656Z,6.13
2023-04-01T00:13:22.919Z,4.80
2023-04-01T00:14:57.160Z,4.40
2023-04-01T00:16:29.891Z,4.10
2023-04-01T00:18:01.875Z,5.93
2023-04-01T00:19:34.654Z,5.35
2023-04-01T00:21:08.192Z,7.30
2023-04-01T00:22:40.896Z,3.37
2023-04-01T00:24:14.125Z,6.57
2023-04-01T00:25:48.774Z,4.20
2023-04-01T00:27:21.845Z,5.68
2023-04-01T00:28:54.707Z,5.07
2023-04-01T00:30:28.747Z,5.83
2023-04-01T00:32:02.184Z,5.87
2023-04-01T00:33:35.065Z,4.63
2023-04-01T00:35:08.350Z,3.97
2023-04-01T00:36:41.113Z,5.63
2023-04-01T00:38:13.914Z,6.40
2023-04-01T00:39:46.915Z,4.53
2023-04-01T00:41:22.170Z,5.07
2023-04-01T00:42:55.355Z,3.10
2023-04-01T00:44:30.801Z,3.22
2023-04-01T00:46:04.184Z,4.47
2023-04-01T00:47:36.960Z,6.43
2023-04-01T00:49:10.872Z,4.07
2023-04-01T00:50:48.039Z,2.85
2023-04-01T00:52:24.860Z,4.10
2023-04-01T00:54:00.236Z,3.38
2023-04-01T00:55:37.434Z,5.17
2023-04-01T00:57:15.596Z,3.92
2023-04-01T00:58:53.056Z,4.82
2023-04-01T01:00:25.291Z,5.50
2023-04-01T01:01:59.461Z,3.33
2023-04-01T01:03:32.953Z,3.45
2023-04-01T01:05:06.158Z,3.88
2023-04-01T01:06:48.850Z,4.38
2023-04-01T01:08:31.309Z,4.37
2023-04-01T01:10:09.886Z,6.40
2023-04-01T01:11:46.093Z,3.17
2023-04-01T01:13:22.378Z,4.03
2023-04-01T01:15:02.152Z,6.20
2023-04-01T01:16:42.118Z,4.22
2023-04-01T01:18:22.406Z,3.47
2023-04-01T01:20:32.299Z,2.78
2023-04-01T01:22:20.356Z,3.63
2023-04-01T01:24:28.265Z,3.92
2023-04-01T01:26:16.980Z,2.85
2023-04-01T01:27:58.644Z,2.65
2023-04-01T01:29:58.694Z,4.22
2023-04-01T01:31:38.572Z,4.05
2023-04-01T01:33:27.533Z,1.65
2023-04-01T01:35:16.338Z,4.07
2023-04-01T01:36:54.779Z,3.75
2023-04-01T01:38:33.362Z,4.35
2023-04-01T01:40:09.369Z,4.50
2023-04-01T01:41:44.830Z,2.47
2023-04-01T01:43:20.686Z,4.93
2023-04-01T01:44:55.894Z,4.82
2023-04-01T01:46:31.106Z,5.15
2023-04-01T01:48:05.956Z,3.10
2023-04-01T01:49:41.398Z,3.08
2023-04-01T01:51:15.467Z,5.68
2023-04-01T01:52:47.240Z,3.25
2023-04-01T01:54:20.527Z,3.35
2023-04-01T01:55:53.286Z,3.47
2023-04-01T01:57:29.649Z,4.57
2023-04-01T01:59:06.041Z,4.60
2023-04-01T02:00:38.678Z,4.38
2023-04-01T02:02:12.720Z,6.32
2023-04-01T02:03:46.842Z,3.63
2023-04-01T02:05:21.809Z,4.43
2023-04-01T02:07:01.662Z,3.10
2023-04-01T02:08:38.889Z,2.90
2023-04-01T02:10:12.000Z,5.22
2023-04-01T02:11:50.635Z,3.00
2023-04-01T02:13:31.679Z,4.65
2023-04-01T02:15:09.046Z,4.30
2023-04-01T02:16:47.169Z,4.65
2023-04-01T02:18:21.517Z,2.88
2023-04-01T02:20:00.061Z,3.05
2023-04-01T02:21:35.342Z,2.70
2023-04-01T02:23:09.988Z,5.03
2023-04-01T02:24:44.417Z,3.50
2023-04-01T02:26:18.004Z,2.93
2023-04-01T02:27:50.236Z,2.17
2023-04-01T02:29:25.937Z,4.28
2023-04-01T02:31:01.184Z,2.75
2023-04-01T02:32:36.201Z,4.73
2023-04-01T02:34:09.470Z,2.63
2023-04-01T02:35:42.328Z,4.05
2023-04-01T02:37:15.243Z,3.85
2023-04-01T02:38:51.470Z,5.50
2023-04-01T02:40:23.651Z,3.13
2023-04-01T02:41:56.357Z,5.70
2023-04-01T02:43:29.245Z,4.15
2023-04-01T02:45:01.274Z,4.05
2023-04-01T02:46:33.979Z,3.25
2023-04-01T02:48:07.234Z,3.25
2023-04-01T02:49:40.188Z,2.90
2023-04-01T02:51:12.994Z,3.28
2023-04-01T02:52:45.876Z,3.08
2023-04-01T02:54:19.982Z,4.07
2023-04-01T02:55:53.259Z,2.47
2023-04-01T02:57:25.261Z,3.47
2023-04-01T02:58:58.241Z,2.50
2023-04-01T03:00:31.420Z,6.45
2023-04-01T03:02:04.178Z,4.27
2023-04-01T03:03:36.950Z,3.28
2023-04-01T03:05:10.280Z,1.75
2023-04-01T03:06:43.053Z,4.45
2023-04-01T03:08:14.833Z,2.95
2023-04-01T03:09:49.193Z,2.88
2023-04-01T03:11:22.140Z,2.83
2023-04-01T03:12:54.913Z,3.90
2023-04-01T03:14:27.621Z,3.85
2023-04-01T03:16:00.592Z,3.33
2023-04-01T03:17:32.462Z,4.00
2023-04-01T03:19:05.261Z,2.67
2023-04-01T03:20:37.000Z,5.63
2023-04-01T03:22:11.480Z,4.10
2023-04-01T03:23:44.290Z,4.05
2023-04-01T03:25:18.392Z,5.55
2023-04-01T03:26:51.299Z,3.63
2023-04-01T03:28:24.017Z,4.47
2023-04-01T03:29:56.898Z,2.75
2023-04-01T03:31:28.807Z,3.10
2023-04-01T03:33:02.656Z,4.03
2023-04-01T03:34:35.594Z,3.95
2023-04-01T03:36:08.853Z,5.60
2023-04-01T03:37:42.007Z,5.80
2023-04-01T03:39:14.002Z,2.20
2023-04-01T03:40:48.099Z,5.57
2023-04-01T03:42:21.300Z,4.05
2023-04-01T03:43:54.463Z,4.47
2023-04-01T03:45:27.333Z,4.00
2023-04-01T03:47:00.271Z,5.20
2023-04-01T03:48:32.183Z,3.83
2023-04-01T03:50:06.216Z,3.73
2023-04-01T03:51:39.104Z,4.20
2023-04-01T03:53:12.555Z,3.33
2023-04-01T03:54:45.418Z,3.08
2023-04-01T03:56:19.768Z,5.78
2023-04-01T03:57:52.504Z,3.15
2023-04-01T03:59:25.262Z,5.03
2023-04-01T04:00:57.992Z,3.30
2023-04-01T04:02:30.738Z,3.55
2023-04-01T04:04:03.586Z,2.63
2023-04-01T04:05:36.440Z,2.88
2023-04-01T04:07:08.210Z,3.15
2023-04-01T04:08:41.317Z,1.58
2023-04-01T04:10:14.012Z,3.08
2023-04-01T04:11:48.531Z,2.70
2023-04-01T04:13:21.286Z,4.95
2023-04-01T04:14:54.022Z,2.72
2023-04-01T04:16:25.990Z,3.53
2023-04-01T04:17:58.910Z,4.20
2023-04-01T04:19:35.813Z,4.63
2023-04-01T04:21:07.886Z,2.78
2023-04-01T04:22:40.900Z,2.30
2023-04-01T04:24:13.607Z,1.77
2023-04-01T04:25:56.080Z,3.63
2023-04-01T04:27:30.857Z,2.95
2023-04-01T04:29:04.163Z,3.27
2023-04-01T04:30:35.900Z,4.20
2023-04-01T04:32:08.849Z,5.53
2023-04-01T04:33:41.548Z,4.47
2023-04-01T04:35:14.261Z,5.38
2023-04-01T04:36:47.215Z,5.00
2023-04-01T04:38:19.166Z,4.95
2023-04-01T04:39:51.857Z,2.63
2023-04-01T04:41:24.860Z,2.10
2023-04-01T04:42:59.256Z,4.43
2023-04-01T04:44:32.203Z,5.28
2023-04-01T04:46:06.980Z,3.43
2023-04-01T04:47:39.826Z,3.07
2023-04-01T04:49:12.524Z,2.77
2023-04-01T04:50:45.611Z,3.15
2023-04-01T04:52:18.332Z,3.95
2023-04-01T04:53:52.700Z,3.17
2023-04-01T04:55:24.835Z,5.00
2023-04-01T04:56:57.606Z,3.85
2023-04-01T04:58:31.748Z,4.23
2023-04-01T05:00:05.655Z,3.53
2023-04-01T05:01:38.379Z,2.38
2023-04-01T05:03:11.858Z,2.88
2023-04-01T05:04:44.742Z,4.15
2023-04-01T05:06:18.586Z,3.50
2023-04-01T05:07:50.334Z,3.58
2023-04-01T05:09:23.031Z,3.38
2023-04-01T05:10:55.821Z,2.00
2023-04-01T05:12:28.552Z,2.13
2023-04-01T05:14:02.588Z,2.83
2023-04-01T05:15:35.545Z,3.08
2023-04-01T05:17:09.843Z,2.40
2023-04-01T05:18:42.603Z,6.70
2023-04-01T05:20:16.350Z,6.63
2023-04-01T05:21:49.077Z,6.25
2023-04-01T05:23:22.799Z,3.63
2023-04-01T05:24:55.492Z,5.30
2023-04-01T05:26:28.185Z,3.60
2023-04-01T05:28:00.864Z,2.33
2023-04-01T05:29:35.894Z,2.20
2023-04-01T05:31:09.251Z,1.48
2023-04-01T05:32:42.115Z,3.35
2023-04-01T05:34:15.751Z,3.97
2023-04-01T05:35:48.461Z,1.92
2023-04-01T05:37:21.813Z,2.80
2023-04-01T05:38:57.369Z,1.58
2023-04-01T05:40:30.473Z,2.50
2023-04-01T05:42:03.185Z,4.15
2023-04-01T05:43:37.964Z,2.03
2023-04-01T05:45:12.461Z,2.90
2023-04-01T05:46:45.198Z,1.52
2023-04-01T05:48:17.885Z,2.92
2023-04-01T05:49:50.599Z,3.50
2023-04-01T05:51:23.314Z,0.93
2023-04-01T05:52:56.019Z,3.25
2023-04-01T05:54:28.833Z,2.25
2023-04-01T05:56:03.928Z,1.17
2023-04-01T05:57:36.733Z,2.42
2023-04-01T05:59:11.774Z,2.30
2023-04-01T06:00:46.858Z,1.38
2023-04-01T06:02:20.864Z,1.75
2023-04-01T06:03:53.934Z,4.45
2023-04-01T06:05:29.355Z,1.95
2023-04-01T06:07:02.072Z,1.90
2023-04-01T06:08:35.384Z,2.50
2023-04-01T06:10:14.265Z,2.47
2023-04-01T06:12:02.904Z,1.70
2023-04-01T06:13:49.216Z,2.70
2023-04-01T06:15:36.731Z,2.13
2023-04-01T06:17:26.455Z,2.38
2023-04-01T06:19:11.869Z,3.88
2023-04-01T06:20:54.556Z,3.58
2023-04-01T06:22:48.561Z,2.28
2023-04-01T06:24:40.532Z,2.55
2023-04-01T06:26:27.200Z,1.92
2023-04-01T06:28:18.764Z,1.80
2023-04-01T06:30:09.022Z,1.67
2023-04-01T06:32:04.774Z,3.00
2023-04-01T06:34:06.008Z,1.52
2023-04-01T06:35:55.183Z,2.60
2023-04-01T06:37:44.649Z,1.05
2023-04-01T06:39:58.236Z,1.70
2023-04-01T06:41:56.733Z,1.45
2023-04-01T06:43:43.193Z,1.13
2023-04-01T06:45:30.766Z,2.38
2023-04-01T06:47:21.631Z,1.50
2023-04-01T06:49:08.460Z,2.47
2023-04-01T06:50:50.141Z,2.47
2023-04-01T06:52:28.395Z,3.03
2023-04-01T06:54:08.255Z,2.20
2023-04-01T06:55:46.953Z,1.55
2023-04-01T06:57:27.819Z,1.33
2023-04-01T06:59:04.025Z,2.33
2023-04-01T07:00:38.826Z,1.40
2023-04-01T07:02:23.658Z,1.55
2023-04-01T07:04:02.152Z,0.70
2023-04-01T07:05:36.536Z,1.80
2023-04-01T07:07:17.608Z,1.03
2023-04-01T07:08:51.510Z,1.80
2023-04-01T07:10:32.942Z,1.48
2023-04-01T07:12:12.961Z,1.90
2023-04-01T07:13:51.112Z,1.30
2023-04-01T07:15:28.425Z,0.60
2023-04-01T07:17:07.202Z,2.72
2023-04-01T07:18:46.327Z,2.60
2023-04-01T07:20:27.135Z,0.75
2023-04-01T07:22:06.924Z,2.13
2023-04-01T07:23:44.407Z,0.97
2023-04-01T07:25:20.404Z,1.00
2023-04-01T07:26:56.295Z,0.83
2023-04-01T07:28:33.035Z,0.63
2023-04-01T07:30:16.045Z,0.50
2023-04-01T07:32:16.385Z,0.70
2023-04-01T07:34:00.424Z,1.23
2023-04-01T07:35:42.642Z,0.80
2023-04-01T07:37:19.165Z,0.50
2023-04-01T07:39:02.653Z,0.97
2023-04-01T07:40:44.254Z,0.40
2023-04-01T07:42:23.855Z,0.60
2023-04-01T07:44:04.845Z,1.23
2023-04-01T07:45:45.258Z,2.47
2023-04-01T07:47:38.862Z,0.50
2023-04-01T07:49:17.597Z,0.57
2023-04-01T07:51:01.798Z,0.83
2023-04-01T07:52:41.699Z,1.03
2023-04-01T07:54:24.606Z,1.33
2023-04-01T07:56:06.959Z,0.63
2023-04-01T07:57:45.643Z,0.70
2023-04-01T07:59:25.196Z,0.70
2023-04-01T08:01:05.162Z,0.40
2023-04-01T08:02:49.828Z,0.50
2023-04-01T08:04:37.988Z,0.87
2023-04-01T08:06:18.711Z,0.43
2023-04-01T08:08:00.049Z,2.07
2023-04-01T08:09:40.665Z,0.40
2023-04-01T08:11:24.016Z,1.60
2023-04-01T08:13:09.872Z,0.40
2023-04-01T08:14:54.140Z,0.53
2023-04-01T08:16:38.478Z,0.47
2023-04-01T08:18:24.785Z,0.57
2023-04-01T08:20:11.108Z,0.70
2023-04-01T08:21:48.988Z,0.50
2023-04-01T08:23:26.262Z,0.93
2023-04-01T08:25:03.574Z,0.47
2023-04-01T08:26:41.118Z,0.40
2023-04-01T08:28:21.720Z,0.30
2023-04-01T08:30:00.250Z,0.40
2023-04-01T08:31:37.857Z,0.70
2023-04-01T08:33:16.134Z,0.40
2023-04-01T08:34:55.348Z,0.40
2023-04-01T08:36:33.166Z,1.33
2023-04-01T08:38:14.810Z,0.63
2023-04-01T08:39:52.834Z,0.50
2023-04-01T08:41:54.582Z,0.60
2023-04-01T08:43:56.309Z,0.70
2023-04-01T08:46:00.836Z,0.40
2023-04-01T08:47:48.686Z,0.93
2023-04-01T08:49:44.075Z,1.87
2023-04-01T08:51:49.753Z,0.40
2023-04-01T08:53:36.655Z,1.70
2023-04-01T08:55:37.462Z,1.30
2023-04-01T08:57:16.145Z,0.63
2023-04-01T08:59:10.582Z,0.50
2023-04-01T09:00:50.769Z,1.03
2023-04-01T09:02:46.180Z,0.93
2023-04-01T09:04:46.575Z,0.87
2023-04-01T09:06:37.384Z,0.50
2023-04-01T09:08:22.624Z,0.80
2023-04-01T09:10:21.506Z,0.40
2023-04-01T09:12:26.948Z,0.40
2023-04-01T09:14:25.243Z,0.70
2023-04-01T09:16:26.963Z,1.33
2023-04-01T09:18:18.143Z,0.40
2023-04-01T09:20:19.125Z,1.80
2023-04-01T09:22:23.624Z,0.67
2023-04-01T09:24:26.278Z,1.13
2023-04-01T09:26:19.004Z,1.10
2023-04-01T09:27:59.367Z,0.67
2023-04-01T09:29:56.677Z,0.50
2023-04-01T09:31:48.920Z,0.50
2023-04-01T09:33:58.690Z,0.50
2023-04-01T09:35:50.874Z,0.47
2023-04-01T09:37:35.961Z,0.50
2023-04-01T09:39:33.170Z,0.40
2023-04-01T09:41:14.500Z,0.70
2023-04-01T09:43:17.296Z,0.30
2023-04-01T09:44:59.142Z,0.80
2023-04-01T09:46:45.601Z,0.53
2023-04-01T09:48:30.840Z,0.33
2023-04-01T09:50:22.137Z,0.53
2023-04-01T09:52:08.243Z,0.77
2023-04-01T09:53:58.310Z,2.03
2023-04-01T09:56:01.046Z,1.20
2023-04-01T09:58:03.128Z,0.97
2023-04-01T09:59:59.479Z,1.40
2023-04-01T10:02:10.545Z,0.57
2023-04-01T10:04:19.525Z,1.13
2023-04-01T10:06:30.999Z,0.67
2023-04-01T10:08:27.461Z,0.57
2023-04-01T10:10:51.010Z,0.30
2023-04-01T10:13:07.411Z,0.40
2023-04-01T10:15:08.632Z,0.40
2023-04-01T10:17:24.760Z,0.40
2023-04-01T10:19:24.743Z,0.57
2023-04-01T10:21:32.856Z,0.87
2023-04-01T10:23:22.761Z,0.43
2023-04-01T10:25:20.747Z,0.40
2023-04-01T10:27:16.910Z,0.40
2023-04-01T10:29:25.028Z,0.40
2023-04-01T10:31:35.334Z,0.47
2023-04-01T10:33:46.295Z,0.40
2023-04-01T10:35:53.471Z,0.30
2023-04-01T10:37:46.307Z,0.47
2023-04-01T10:40:04.344Z,0.80
2023-04-01T10:42:09.002Z,0.30
2023-04-01T10:44:26.079Z,0.93
2023-04-01T10:46:21.788Z,0.40
2023-04-01T10:48:25.610Z,0.40
2023-04-01T10:50:18.915Z,0.13
2023-04-01T10:52:17.472Z,0.20
2023-04-01T10:54:30.006Z,0.40
2023-04-01T10:56:38.188Z,1.13
2023-04-01T10:59:00.200Z,0.40
2023-04-01T11:01:04.852Z,1.30
2023-04-01T11:03:18.488Z,0.50
2023-04-01T11:05:40.683Z,0.73
2023-04-01T11:07:46.591Z,0.60
2023-04-01T11:10:00.555Z,0.33
2023-04-01T11:12:09.778Z,0.30
2023-04-01T11:14:18.726Z,0.30
2023-04-01T11:16:20.504Z,0.47
2023-04-01T11:18:19.544Z,0.50
2023-04-01T11:20:38.295Z,0.60
2023-04-01T11:22:33.872Z,0.20
2023-04-01T11:24:36.496Z,0.30
2023-04-01T11:26:11.626Z,0.60
2023-04-01T11:27:59.733Z,0.40
2023-04-01T11:30:09.725Z,0.37
2023-04-01T11:32:00.090Z,0.30
2023-04-01T11:33:38.305Z,0.47
2023-04-01T11:35:45.072Z,0.47
2023-04-01T11:37:29.500Z,0.93
2023-04-01T11:39:24.626Z,0.30
2023-04-01T11:41:04.749Z,0.77
2023-04-01T11:42:46.046Z,0.93
2023-04-01T11:44:21.178Z,0.60
2023-04-01T11:46:02.922Z,0.30
2023-04-01T11:48:09.844Z,0.30
2023-04-01T11:49:55.418Z,0.63
2023-04-01T11:51:47.997Z,0.40
2023-04-01T11:53:29.531Z,1.03
2023-04-01T11:55:24.938Z,1.07
2023-04-01T11:57:14.431Z,1.10
2023-04-01T11:59:29.716Z,0.60
2023-04-01T12:01:25.290Z,0.50
2023-04-01T12:03:28.454Z,1.13
2023-04-01T12:05:24.196Z,0.40
2023-04-01T12:07:04.910Z,0.53
2023-04-01T12:08:46.540Z,0.30
2023-04-01T12:10:23.276Z,0.33
2023-04-01T12:12:12.736Z,0.30
2023-04-01T12:13:51.992Z,1.17
2023-04-01T12:15:32.138Z,0.27
2023-04-01T12:17:12.043Z,1.23
2023-04-01T12:18:50.350Z,0.30
2023-04-01T12:20:32.265Z,0.83
2023-04-01T12:22:27.180Z,4.23
2023-04-01T12:24:31.960Z,4.60
2023-04-01T12:26:26.657Z,6.83
2023-04-01T12:28:12.581Z,11.60
2023-04-01T12:30:01.566Z,9.93
2023-04-01T12:31:48.146Z,17.80
2023-04-01T12:34:03.668Z,11.63
2023-04-01T12:35:50.338Z,5.73
2023-04-01T12:37:31.476Z,7.00
2023-04-01T12:39:23.845Z,4.47
2023-04-01T12:41:15.897Z,5.53
2023-04-01T12:43:09.893Z,2.47
2023-04-01T12:44:53.828Z,3.73
2023-04-01T12:46:33.304Z,5.13
2023-04-01T12:48:39.604Z,7.13
2023-04-01T12:50:27.299Z,5.70
2023-04-01T12:52:08.907Z,10.13
2023-04-01T12:54:05.539Z,12.93
2023-04-01T12:55:41.412Z,9.83
2023-04-01T12:57:30.155Z,4.03
2023-04-01T12:59:32.291Z,3.30
2023-04-01T13:01:21.562Z,1.43
2023-04-01T13:03:09.961Z,0.60
2023-04-01T13:05:12.518Z,1.53
2023-04-01T13:07:00.875Z,0.97
2023-04-01T13:08:44.018Z,1.40
2023-04-01T13:10:29.448Z,1.33
2023-04-01T13:12:24.549Z,0.80
2023-04-01T13:14:32.205Z,1.20
2023-04-01T13:16:11.097Z,0.90
2023-04-01T13:17:49.155Z,1.17
2023-04-01T13:19:27.563Z,0.97
2023-04-01T13:21:08.130Z,1.17
2023-04-01T13:22:54.514Z,0.70
2023-04-01T13:24:38.493Z,0.67
2023-04-01T13:26:19.457Z,1.13
2023-04-01T13:28:00.213Z,0.70
2023-04-01T13:29:37.276Z,1.07
2023-04-01T13:31:25.647Z,0.93
2023-04-01T13:33:06.926Z,1.33
2023-04-01T13:34:54.499Z,0.40
2023-04-01T13:36:38.204Z,0.60
2023-04-01T13:38:28.638Z,0.50
2023-04-01T13:40:28.564Z,0.50
2023-04-01T13:42:16.925Z,0.50
2023-04-01T13:43:54.418Z,0.40
2023-04-01T13:45:33.792Z,0.50
2023-04-01T13:47:25.068Z,0.63
2023-04-01T13:49:27.341Z,0.50
2023-04-01T13:51:21.535Z,1.23
2023-04-01T13:53:22.478Z,0.37
2023-04-01T13:55:16.438Z,0.50
2023-04-01T13:56:59.285Z,0.40
2023-04-01T13:58:45.808Z,0.40
2023-04-01T14:00:31.413Z,0.70
2023-04-01T14:02:26.084Z,1.03
2023-04-01T14:04:29.346Z,1.50
2023-04-01T14:06:14.552Z,0.90
2023-04-01T14:07:59.872Z,1.30
2023-04-01T14:09:49.663Z,1.53
2023-04-01T14:11:29.508Z,0.80
2023-04-01T14:13:09.578Z,0.83
2023-04-01T14:14:57.872Z,1.70
2023-04-01T14:17:00.824Z,0.47
2023-04-01T14:18:54.557Z,0.50
2023-04-01T14:20:41.635Z,0.73
2023-04-01T14:22:25.454Z,1.67
2023-04-01T14:24:16.264Z,1.47
2023-04-01T14:26:03.877Z,0.30
2023-04-01T14:27:47.225Z,0.77
2023-04-01T14:29:29.464Z,0.30
2023-04-01T14:31:19.790Z,0.50
2023-04-01T14:33:03.180Z,0.50
2023-04-01T14:34:52.195Z,1.73
2023-04-01T14:36:51.171Z,0.80
2023-04-01T14:38:32.782Z,0.40
2023-04-01T14:40:29.076Z,0.40
2023-04-01T14:42:22.151Z,0.50
2023-04-01T14:44:20.690Z,0.60
2023-04-01T14:46:19.123Z,0.77
2023-04-01T14:47:56.434Z,0.70
2023-04-01T14:49:36.305Z,0.90
2023-04-01T14:51:18.618Z,0.30
2023-04-01T14:53:00.037Z,0.40
2023-04-01T14:54:35.443Z,0.40
2023-04-01T14:56:08.235Z,0.73
2023-04-01T14:57:40.974Z,0.40
2023-04-01T14:59:19.351Z,0.50
2023-04-01T15:01:15.999Z,0.50
2023-04-01T15:02:59.955Z,0.50
2023-04-01T15:04:45.958Z,0.63
2023-04-01T15:06:41.400Z,0.73
2023-04-01T15:08:19.225Z,0.83
2023-04-01T15:10:00.295Z,0.77
2023-04-01T15:11:43.598Z,0.50
2023-04-01T15:13:22.519Z,0.37
2023-04-01T15:15:18.306Z,0.73
2023-04-01T15:17:02.064Z,0.40
2023-04-01T15:18:47.546Z,0.40
2023-04-01T15:20:53.266Z,0.53
2023-04-01T15:22:45.968Z,0.30
2023-04-01T15:24:24.869Z,0.30
2023-04-01T15:26:23.293Z,0.47
2023-04-01T15:28:01.848Z,1.07
2023-04-01T15:29:50.523Z,0.40
2023-04-01T15:31:29.882Z,3.03
2023-04-01T15:33:27.902Z,0.83
2023-04-01T15:35:16.717Z,0.47
2023-04-01T15:36:55.495Z,0.63
2023-04-01T15:38:36.828Z,0.63
2023-04-01T15:40:22.054Z,0.50
2023-04-01T15:42:13.873Z,0.23
2023-04-01T15:43:49.917Z,0.57
2023-04-01T15:45:38.679Z,0.50
2023-04-01T15:47:34.117Z,0.83
2023-04-01T15:49:24.593Z,0.40
2023-04-01T15:51:05.525Z,0.80
2023-04-01T15:52:45.658Z,0.50
2023-04-01T15:54:34.512Z,0.77
2023-04-01T15:56:43.380Z,0.73
2023-04-01T15:58:42.778Z,1.53
2023-04-01T16:00:44.536Z,0.50
2023-04-01T16:02:23.854Z,1.27
2023-04-01T16:04:07.809Z,0.50
2023-04-01T16:05:50.401Z,1.03
2023-04-01T16:07:40.394Z,0.70
2023-04-01T16:09:39.537Z,0.63
2023-04-01T16:11:20.728Z,0.77
2023-04-01T16:13:05.374Z,0.90
2023-04-01T16:14:47.278Z,1.17
2023-04-01T16:16:31.248Z,0.93
2023-04-01T16:18:27.535Z,0.40
2023-04-01T16:20:09.407Z,0.57
2023-04-01T16:21:48.126Z,0.60
2023-04-01T16:23:28.464Z,1.27
2023-04-01T16:25:20.841Z,0.43
2023-04-01T16:26:59.626Z,0.50
2023-04-01T16:28:36.163Z,0.57
2023-04-01T16:30:28.585Z,1.03
2023-04-01T16:32:17.144Z,0.33
2023-04-01T16:33:54.127Z,0.50
2023-04-01T16:35:38.659Z,0.80
2023-04-01T16:37:14.889Z,0.40
2023-04-01T16:38:55.322Z,1.23
2023-04-01T16:40:39.866Z,0.50
2023-04-01T16:42:32.982Z,0.73
2023-04-01T16:44:19.880Z,0.40
2023-04-01T16:46:10.324Z,0.70
2023-04-01T16:47:49.832Z,2.07
2023-04-01T16:49:31.738Z,0.83
2023-04-01T16:51:12.922Z,1.33
2023-04-01T16:53:00.732Z,1.60
2023-04-01T16:54:41.996Z,2.47
2023-04-01T16:56:18.681Z,1.13
2023-04-01T16:57:54.224Z,1.60
2023-04-01T16:59:35.328Z,1.90
2023-04-01T17:01:14.132Z,2.80
2023-04-01T17:02:54.444Z,1.53
2023-04-01T17:04:34.635Z,1.20
2023-04-01T17:06:22.189Z,1.30
2023-04-01T17:08:07.220Z,0.70
2023-04-01T17:09:53.188Z,1.50
2023-04-01T17:11:29.844Z,0.70
2023-04-01T17:13:25.540Z,0.97
2023-04-01T17:15:06.668Z,0.80
2023-04-01T17:16:58.146Z,0.77
2023-04-01T17:18:36.920Z,0.50
2023-04-01T17:20:36.104Z,1.07
2023-04-01T17:22:22.820Z,0.50
2023-04-01T17:24:05.807Z,0.67
2023-04-01T17:25:58.247Z,0.50
2023-04-01T17:27:42.156Z,0.50
2023-04-01T17:29:19.071Z,0.80
2023-04-01T17:31:04.273Z,0.50
2023-04-01T17:32:51.170Z,1.37
2023-04-01T17:34:35.171Z,0.93
2023-04-01T17:36:18.142Z,0.43
2023-04-01T17:38:01.549Z,1.00
2023-04-01T17:39:49.958Z,0.47
2023-04-01T17:41:32.045Z,0.40
2023-04-01T17:43:12.658Z,0.60
2023-04-01T17:45:06.243Z,0.80
2023-04-01T17:47:03.772Z,0.50
2023-04-01T17:48:45.925Z,1.90
2023-04-01T17:50:29.230Z,0.60
2023-04-01T17:52:10.455Z,0.60
2023-04-01T17:53:49.690Z,0.60
2023-04-01T17:55:51.009Z,1.07
2023-04-01T17:57:34.703Z,1.93
2023-04-01T17:59:17.855Z,0.60
2023-04-01T18:01:05.318Z,0.50
2023-04-01T18:02:50.640Z,0.60
2023-04-01T18:04:55.694Z,0.40
2023-04-01T18:06:36.967Z,0.97
2023-04-01T18:08:17.087Z,0.67
2023-04-01T18:10:03.495Z,0.50
2023-04-01T18:11:46.427Z,1.03
2023-04-01T18:13:35.339Z,0.50
2023-04-01T18:15:24.364Z,0.50
2023-04-01T18:17:20.009Z,0.50
2023-04-01T18:19:03.559Z,1.23
2023-04-01T18:20:45.323Z,1.90
2023-04-01T18:22:22.784Z,0.60
2023-04-01T18:24:02.777Z,1.03
2023-04-01T18:25:41.273Z,1.07
2023-04-01T18:27:19.921Z,0.50
2023-04-01T18:28:59.792Z,0.87
2023-04-01T18:30:34.915Z,1.07
2023-04-01T18:32:19.433Z,1.27
2023-04-01T18:34:01.510Z,1.70
2023-04-01T18:35:50.890Z,1.73
2023-04-01T18:37:29.104Z,1.37
2023-04-01T18:39:09.453Z,0.83
2023-04-01T18:40:47.830Z,0.60
2023-04-01T18:42:32.404Z,0.60
2023-04-01T18:44:27.035Z,0.70
2023-04-01T18:46:02.920Z,0.80
2023-04-01T18:47:44.721Z,0.77
2023-04-01T18:49:23.538Z,1.07
2023-04-01T18:50:59.929Z,1.57
2023-04-01T18:52:37.770Z,0.93
2023-04-01T18:54:15.736Z,2.83
2023-04-01T18:55:51.780Z,1.40
2023-04-01T18:57:24.827Z,1.20
2023-04-01T18:59:03.855Z,1.20
2023-04-01T19:00:41.450Z,1.27
2023-04-01T19:02:28.758Z,1.70
2023-04-01T19:04:11.836Z,0.97
2023-04-01T19:05:47.953Z,1.23
2023-04-01T19:07:43.591Z,0.80
2023-04-01T19:09:22.326Z,0.70
2023-04-01T19:11:11.724Z,1.33
2023-04-01T19:13:01.634Z,0.80
2023-04-01T19:14:50.654Z,0.80
2023-04-01T19:16:37.820Z,1.27
2023-04-01T19:18:36.384Z,0.87
2023-04-01T19:20:19.926Z,0.90
2023-04-01T19:21:58.538Z,0.93
2023-04-01T19:24:07.273Z,1.00
2023-04-01T19:25:43.448Z,2.20
2023-04-01T19:27:26.770Z,1.17
2023-04-01T19:29:08.303Z,1.10
2023-04-01T19:30:52.140Z,1.40
2023-04-01T19:32:39.768Z,0.93
2023-04-01T19:34:24.473Z,0.80
2023-04-01T19:36:02.503Z,1.10
2023-04-01T19:37:41.195Z,0.90
2023-04-01T19:39:33.840Z,0.77
2023-04-01T19:41:18.372Z,1.97
2023-04-01T19:42:57.858Z,1.20
2023-04-01T19:44:43.566Z,1.20
2023-04-01T19:46:26.410Z,1.03
2023-04-01T19:48:11.829Z,1.00
2023-04-01T19:49:55.369Z,0.90
2023-04-01T19:51:35.461Z,1.23
2023-04-01T19:53:23.461Z,0.97
2023-04-01T19:55:01.193Z,1.83
2023-04-01T19:56:41.704Z,1.13
2023-04-01T19:58:20.928Z,0.83
2023-04-01T20:00:02.092Z,0.70
2023-04-01T20:01:44.688Z,1.13
2023-04-01T20:03:33.798Z,1.13
2023-04-01T20:05:23.469Z,0.97
2023-04-01T20:06:59.827Z,0.80
2023-04-01T20:08:40.624Z,1.47
2023-04-01T20:10:19.533Z,0.87
2023-04-01T20:11:59.482Z,1.27
2023-04-01T20:13:44.753Z,1.50
2023-04-01T20:15:29.162Z,1.70
2023-04-01T20:17:09.818Z,1.10
2023-04-01T20:18:53.804Z,1.03
2023-04-01T20:20:29.245Z,0.90
2023-04-01T20:22:05.239Z,0.90
2023-04-01T20:23:44.749Z,0.90
2023-04-01T20:25:20.724Z,0.90
2023-04-01T20:27:04.321Z,1.33
2023-04-01T20:28:46.177Z,2.77
2023-04-01T20:30:36.766Z,0.83
2023-04-01T20:32:27.168Z,0.93
2023-04-01T20:34:39.689Z,1.60
2023-04-01T20:36:22.774Z,1.53
2023-04-01T20:38:06.497Z,1.50
2023-04-01T20:39:57.546Z,1.00
2023-04-01T20:41:40.075Z,1.20
2023-04-01T20:43:36.028Z,1.10
2023-04-01T20:45:32.551Z,1.10
2023-04-01T20:47:19.477Z,1.55
2023-04-01T20:49:26.091Z,0.90
2023-04-01T20:51:00.984Z,1.00
2023-04-01T20:52:42.897Z,1.05
2023-04-01T20:54:35.946Z,1.07
2023-04-01T20:56:23.510Z,1.07
2023-04-01T20:58:07.277Z,1.53
2023-04-01T21:00:21.100Z,1.13
2023-04-01T21:02:05.593Z,1.08
2023-04-01T21:03:47.207Z,1.10
2023-04-01T21:05:37.569Z,1.10
2023-04-01T21:07:29.052Z,1.25
2023-04-01T21:09:15.719Z,1.53
2023-04-01T21:10:56.024Z,1.20
2023-04-01T21:12:38.160Z,2.00
2023-04-01T21:14:42.583Z,1.87
2023-04-01T21:16:27.866Z,1.40
2023-04-01T21:18:12.108Z,1.20
2023-04-01T21:20:00.763Z,1.33
2023-04-01T21:21:56.883Z,1.40
2023-04-01T21:23:50.818Z,1.38
2023-04-01T21:25:37.542Z,2.03
2023-04-01T21:27:18.232Z,2.23
2023-04-01T21:29:17.502Z,1.48
2023-04-01T21:31:04.449Z,1.60
2023-04-01T21:33:04.700Z,1.53
2023-04-01T21:34:45.690Z,2.13
2023-04-01T21:36:33.948Z,1.70
2023-04-01T21:38:32.459Z,3.20
2023-04-01T21:40:55.186Z,1.30
2023-04-01T21:42:41.283Z,1.27
2023-04-01T21:44:54.053Z,1.20
2023-04-01T21:46:51.784Z,1.13
2023-04-01T21:49:00.723Z,1.33
2023-04-01T21:50:48.066Z,1.60
2023-04-01T21:52:56.656Z,2.10
2023-04-01T21:55:05.366Z,3.88
2023-04-01T21:57:05.777Z,1.60
2023-04-01T21:59:06.663Z,1.57
2023-04-01T22:00:41.000Z,1.52
2023-04-01T22:02:40.481Z,1.55
2023-04-01T22:04:32.589Z,2.90
2023-04-01T22:06:16.684Z,2.10
2023-04-01T22:07:57.845Z,1.70
2023-04-01T22:09:34.380Z,1.55
2023-04-01T22:11:13.151Z,1.92
2023-04-01T22:12:55.711Z,1.77
2023-04-01T22:14:34.343Z,1.90
2023-04-01T22:16:16.285Z,2.00
2023-04-01T22:17:56.487Z,1.83
2023-04-01T22:19:37.065Z,2.40
2023-04-01T22:21:17.304Z,1.80
2023-04-01T22:23:11.109Z,2.43
2023-04-01T22:24:52.848Z,1.77
2023-04-01T22:26:33.420Z,1.80
2023-04-01T22:28:09.724Z,2.00
2023-04-01T22:29:56.013Z,1.85
2023-04-01T22:31:34.376Z,1.63
2023-04-01T22:33:12.567Z,2.03
2023-04-01T22:34:49.762Z,1.80
2023-04-01T22:36:31.356Z,1.92
2023-04-01T22:38:12.533Z,2.05
2023-04-01T22:40:14.977Z,2.25
2023-04-01T22:42:02.373Z,2.30
2023-04-01T22:43:39.989Z,2.40
2023-04-01T22:45:44.241Z,2.65
2023-04-01T22:47:29.331Z,2.38
2023-04-01T22:49:10.470Z,2.10
2023-04-01T22:50:52.782Z,1.80
2023-04-01T22:52:33.547Z,3.75
2023-04-01T22:54:13.512Z,1.90
2023-04-01T22:55:53.663Z,1.90
2023-04-01T22:57:40.534Z,1.73
2023-04-01T22:59:19.521Z,1.70
2023-04-01T23:00:58.319Z,1.90
2023-04-01T23:02:34.411Z,1.90
2023-04-01T23:04:07.989Z,1.73
2023-04-01T23:05:47.943Z,1.70